Time;durP1;ratioP1;P1;durP2;ratioP2;P2;SDS_P1;SDS_P2;PMS_P1;PMS_P2;Temp;Humidity;BMP_temperature;BMP_pressure;BME280_temperature;BME280_humidity;BME280_pressure;Samples;Min_cycle;Max_cycle;Signal;HPM_P1;HPM_P2
2021/03/25 00:00:55;;;;;;;3.80;2.20;;;;;;;;;;5069046;28;20769;-69
2021/03/25 00:03:21;;;;;;;7.60;2.90;;;;;;;;;;5070101;28;20438;-69
2021/03/25 00:05:49;;;;;;;2.30;2.10;;;;;;;;;;5070672;28;20432;-69
2021/03/25 00:08:16;;;;;;;3.35;2.33;;;;;;;;;;5069348;28;20952;-69
2021/03/25 00:10:43;;;;;;;3.33;2.10;;;;;;;;;;5069995;28;20379;-69
2021/03/25 00:13:09;;;;;;;2.70;2.20;;;;;;;;;;5069745;28;20459;-69
2021/03/25 00:15:35;;;;;;;2.57;2.20;;;;;;;;;;5069852;28;20455;-69
2021/03/25 00:18:01;;;;;;;3.45;2.55;;;;;;;;;;5069171;28;20407;-69
2021/03/25 00:20:27;;;;;;;2.60;2.10;;;;;;;;;;5070199;28;20705;-69
2021/03/25 00:22:54;;;;;;;2.87;2.00;;;;;;;;;;5069728;28;20378;-71
2021/03/25 00:25:21;;;;;;;3.85;2.30;;;;;;;;;;5070285;28;20406;-69
2021/03/25 00:27:47;;;;;;;2.72;2.00;;;;;;;;;;5075857;28;20370;-69
2021/03/25 00:30:15;;;;;;;3.17;2.20;;;;;;;;;;5074578;28;20440;-69
2021/03/25 00:32:41;;;;;;;3.17;2.13;;;;;;;;;;5081890;28;20744;-69
2021/03/25 00:35:09;;;;;;;3.33;2.10;;;;;;;;;;5089334;28;20389;-69
2021/03/25 00:37:35;;;;;;;2.70;2.00;;;;;;;;;;5070444;28;20423;-69
2021/03/25 00:40:01;;;;;;;3.15;2.40;;;;;;;;;;5075172;28;20508;-69
2021/03/25 00:42:27;;;;;;;2.50;2.10;;;;;;;;;;5079960;28;20377;-70
2021/03/25 00:44:53;;;;;;;4.10;1.90;;;;;;;;;;5082806;28;20370;-71
2021/03/25 00:47:19;;;;;;;4.60;2.60;;;;;;;;;;5075545;28;20398;-69
2021/03/25 00:49:45;;;;;;;2.33;1.98;;;;;;;;;;5085484;28;20367;-69
2021/03/25 00:52:11;;;;;;;2.40;2.10;;;;;;;;;;5073878;28;20389;-69
2021/03/25 00:54:37;;;;;;;5.60;2.65;;;;;;;;;;5081719;28;20447;-69
2021/03/25 00:57:04;;;;;;;3.50;2.30;;;;;;;;;;5080821;28;20401;-69
2021/03/25 00:59:30;;;;;;;3.17;2.20;;;;;;;;;;5074176;28;20391;-70
2021/03/25 01:01:56;;;;;;;3.63;2.30;;;;;;;;;;5085765;28;20397;-72
2021/03/25 01:04:22;;;;;;;3.22;2.10;;;;;;;;;;5075396;28;20873;-70
2021/03/25 01:06:48;;;;;;;2.65;2.13;;;;;;;;;;5079922;28;20404;-69
2021/03/25 01:09:22;;;;;;;5.28;2.03;;;;;;;;;;5082254;28;20366;-69
2021/03/25 01:11:48;;;;;;;2.60;2.05;;;;;;;;;;5073530;28;20433;-69
2021/03/25 01:14:15;;;;;;;3.30;2.00;;;;;;;;;;5086189;28;20384;-70
2021/03/25 01:16:42;;;;;;;2.53;2.00;;;;;;;;;;5082015;28;20378;-70
2021/03/25 01:19:28;;;;;;;2.90;1.85;;;;;;;;;;5079815;28;20386;-69
2021/03/25 01:21:54;;;;;;;2.10;1.90;;;;;;;;;;5090105;28;20390;-69
2021/03/25 01:24:20;;;;;;;5.53;2.25;;;;;;;;;;5078036;28;20923;-69
2021/03/25 01:26:46;;;;;;;2.20;2.00;;;;;;;;;;5083468;28;20436;-69
2021/03/25 01:29:12;;;;;;;2.60;1.80;;;;;;;;;;5085078;28;20723;-69
2021/03/25 01:31:38;;;;;;;2.43;1.90;;;;;;;;;;5076176;28;20398;-70
2021/03/25 01:34:06;;;;;;;2.40;2.00;;;;;;;;;;5088411;28;20840;-69
2021/03/25 01:36:32;;;;;;;4.30;2.75;;;;;;;;;;5080277;28;20382;-70
2021/03/25 01:38:58;;;;;;;2.20;2.00;;;;;;;;;;5081061;28;20408;-72
2021/03/25 01:41:28;;;;;;;2.95;2.22;;;;;;;;;;5087201;28;20730;-69
2021/03/25 01:43:54;;;;;;;2.70;2.00;;;;;;;;;;5075776;28;20387;-69
2021/03/25 01:46:24;;;;;;;3.20;2.30;;;;;;;;;;5086097;28;20467;-69
2021/03/25 01:48:52;;;;;;;2.33;1.75;;;;;;;;;;5083079;28;20469;-70
2021/03/25 01:51:21;;;;;;;3.45;2.13;;;;;;;;;;5077733;28;20398;-69
2021/03/25 01:54:09;;;;;;;2.20;1.90;;;;;;;;;;5088966;28;20381;-70
2021/03/25 01:56:38;;;;;;;2.40;2.00;;;;;;;;;;5080501;28;20378;-69
2021/03/25 01:59:30;;;;;;;3.17;2.10;;;;;;;;;;5079602;28;20391;-69
2021/03/25 02:02:00;;;;;;;3.10;2.20;;;;;;;;;;5089247;28;20386;-70
2021/03/25 02:04:35;;;;;;;2.00;1.80;;;;;;;;;;5078949;28;20468;-70
2021/03/25 02:07:11;;;;;;;2.38;2.00;;;;;;;;;;5079510;28;20704;-70
2021/03/25 02:09:55;;;;;;;2.67;1.85;;;;;;;;;;5089105;28;20431;-70
2021/03/25 02:12:21;;;;;;;2.10;1.80;;;;;;;;;;5077457;28;20896;-70
2021/03/25 02:14:47;;;;;;;2.00;1.80;;;;;;;;;;5082838;28;20380;-69
2021/03/25 02:17:19;;;;;;;1.70;1.60;;;;;;;;;;5084177;28;20906;-69
2021/03/25 02:20:04;;;;;;;2.20;1.98;;;;;;;;;;5074999;28;20380;-69
2021/03/25 02:22:33;;;;;;;2.53;1.70;;;;;;;;;;5084176;28;20514;-69
2021/03/25 02:25:02;;;;;;;2.10;1.90;;;;;;;;;;5082926;28;20397;-72
2021/03/25 02:27:40;;;;;;;2.00;1.70;;;;;;;;;;5076132;28;20872;-69
2021/03/25 02:30:09;;;;;;;2.78;2.05;;;;;;;;;;5059054;28;20485;-69
2021/03/25 02:32:38;;;;;;;3.00;2.10;;;;;;;;;;5086948;28;20385;-69
2021/03/25 02:35:24;;;;;;;2.90;2.45;;;;;;;;;;5079158;28;20402;-69
2021/03/25 02:37:53;;;;;;;2.20;2.00;;;;;;;;;;5044166;28;20510;-69
2021/03/25 02:40:30;;;;;;;1.67;1.50;;;;;;;;;;5085054;28;20545;-69
2021/03/25 02:43:14;;;;;;;5.72;2.10;;;;;;;;;;5082746;28;20411;-69
2021/03/25 02:45:46;;;;;;;2.60;1.90;;;;;;;;;;5074864;28;20759;-70
2021/03/25 02:48:14;;;;;;;2.08;1.60;;;;;;;;;;5086305;28;20412;-69
2021/03/25 02:50:43;;;;;;;2.23;1.80;;;;;;;;;;5080554;28;20464;-69
2021/03/25 02:53:24;;;;;;;3.00;1.90;;;;;;;;;;5078272;28;20426;-69
2021/03/25 02:55:53;;;;;;;3.95;1.90;;;;;;;;;;5086780;28;20508;-69
2021/03/25 02:58:21;;;;;;;3.05;2.15;;;;;;;;;;5076077;28;20548;-69
2021/03/25 03:00:49;;;;;;;3.90;1.60;;;;;;;;;;5081647;28;20376;-69
2021/03/25 03:03:17;;;;;;;2.22;1.80;;;;;;;;;;5083813;28;20874;-70
2021/03/25 03:05:44;;;;;;;2.30;1.43;;;;;;;;;;5075178;28;20391;-69
2021/03/25 03:08:18;;;;;;;2.20;1.90;;;;;;;;;;5086036;28;20380;-69
2021/03/25 03:10:57;;;;;;;3.55;1.75;;;;;;;;;;5080437;28;20415;-69
2021/03/25 03:13:24;;;;;;;2.63;1.95;;;;;;;;;;5075275;28;20367;-69
2021/03/25 03:15:55;;;;;;;2.22;1.65;;;;;;;;;;5087509;28;20465;-69
2021/03/25 03:18:21;;;;;;;2.40;2.00;;;;;;;;;;5076141;28;20446;-69
2021/03/25 03:21:00;;;;;;;3.00;1.58;;;;;;;;;;5081012;28;20751;-69
2021/03/25 03:23:29;;;;;;;4.15;1.95;;;;;;;;;;5085313;28;20899;-69
2021/03/25 03:25:57;;;;;;;2.88;1.30;;;;;;;;;;5073808;28;20379;-69
2021/03/25 03:28:26;;;;;;;2.42;1.73;;;;;;;;;;5083446;28;21035;-69
2021/03/25 03:31:01;;;;;;;2.17;1.70;;;;;;;;;;5081152;28;20378;-68
2021/03/25 03:33:31;;;;;;;1.70;1.60;;;;;;;;;;5081300;28;20409;-69
2021/03/25 03:35:59;;;;;;;3.22;2.00;;;;;;;;;;5073367;28;20458;-68
2021/03/25 03:38:45;;;;;;;1.92;1.40;;;;;;;;;;5082957;28;20431;-69
2021/03/25 03:41:13;;;;;;;3.08;2.05;;;;;;;;;;5068859;28;20454;-69
2021/03/25 03:43:41;;;;;;;3.70;2.10;;;;;;;;;;5073926;28;20402;-70
2021/03/25 03:46:16;;;;;;;1.60;1.50;;;;;;;;;;5085666;28;20379;-69
2021/03/25 03:48:48;;;;;;;2.55;1.70;;;;;;;;;;5079267;28;20423;-69
2021/03/25 03:51:16;;;;;;;2.05;1.75;;;;;;;;;;5076539;28;20778;-70
2021/03/25 03:53:42;;;;;;;2.90;1.80;;;;;;;;;;5086951;28;20441;-69
2021/03/25 03:56:15;;;;;;;3.50;1.60;;;;;;;;;;5073829;28;20373;-69
2021/03/25 03:58:45;;;;;;;2.22;1.63;;;;;;;;;;5081825;28;20759;-69
2021/03/25 04:01:16;;;;;;;1.50;1.40;;;;;;;;;;5083043;28;20389;-69
2021/03/25 04:03:50;;;;;;;2.97;2.03;;;;;;;;;;5073369;28;20878;-69
2021/03/25 04:06:31;;;;;;;3.25;1.80;;;;;;;;;;5084423;28;20922;-69
2021/03/25 04:09:17;;;;;;;2.67;1.60;;;;;;;;;;5081362;28;20418;-69
2021/03/25 04:11:46;;;;;;;1.60;1.30;;;;;;;;;;5073529;28;20387;-69
2021/03/25 04:14:20;;;;;;;2.10;1.47;;;;;;;;;;5084845;28;20383;-69
2021/03/25 04:16:47;;;;;;;3.50;1.98;;;;;;;;;;5079587;28;20461;-69
2021/03/25 04:19:18;;;;;;;2.60;2.05;;;;;;;;;;5074763;28;20781;-69
2021/03/25 04:21:52;;;;;;;2.88;1.92;;;;;;;;;;5086752;28;20393;-69
2021/03/25 04:24:20;;;;;;;2.30;1.95;;;;;;;;;;5075058;28;20479;-70
2021/03/25 04:26:49;;;;;;;2.40;2.03;;;;;;;;;;5080701;28;20815;-69
2021/03/25 04:29:38;;;;;;;3.60;2.17;;;;;;;;;;5081629;28;20374;-69
2021/03/25 04:32:05;;;;;;;1.77;1.42;;;;;;;;;;5057087;28;20423;-73
2021/03/25 04:34:31;;;;;;;2.50;2.00;;;;;;;;;;5082187;28;20878;-69
2021/03/25 04:36:58;;;;;;;1.77;1.23;;;;;;;;;;5080998;28;20497;-69
2021/03/25 04:39:24;;;;;;;2.00;1.35;;;;;;;;;;5074374;28;20379;-69
2021/03/25 04:41:50;;;;;;;2.63;2.00;;;;;;;;;;5086554;28;20382;-69
2021/03/25 04:44:24;;;;;;;2.10;1.80;;;;;;;;;;5074905;28;20747;-70
2021/03/25 04:47:07;;;;;;;2.10;1.77;;;;;;;;;;5081884;28;20375;-69
2021/03/25 04:49:39;;;;;;;2.70;1.83;;;;;;;;;;5089722;28;20551;-69
2021/03/25 04:52:08;;;;;;;2.90;2.10;;;;;;;;;;5060825;28;20467;-72
2021/03/25 04:54:37;;;;;;;1.55;1.42;;;;;;;;;;5084452;28;20390;-69
2021/03/25 04:57:06;;;;;;;4.38;1.92;;;;;;;;;;5079303;28;20406;-72
2021/03/25 04:59:33;;;;;;;2.28;1.50;;;;;;;;;;5072894;28;20469;-70
2021/03/25 05:02:00;;;;;;;3.80;1.73;;;;;;;;;;5077103;28;20380;-70
2021/03/25 05:04:26;;;;;;;2.42;1.90;;;;;;;;;;5071065;28;20383;-70
2021/03/25 05:06:56;;;;;;;3.00;2.10;;;;;;;;;;5072534;28;20382;-69
2021/03/25 05:09:23;;;;;;;2.10;1.60;;;;;;;;;;5067811;28;20381;-69
2021/03/25 05:11:49;;;;;;;2.10;1.80;;;;;;;;;;5073454;28;20469;-69
2021/03/25 05:14:34;;;;;;;2.20;1.67;;;;;;;;;;5069951;28;20372;-68
2021/03/25 05:17:03;;;;;;;2.20;1.90;;;;;;;;;;5069097;28;20542;-73
2021/03/25 05:19:37;;;;;;;2.08;1.80;;;;;;;;;;5069648;28;20392;-70
2021/03/25 05:22:13;;;;;;;2.15;1.80;;;;;;;;;;5071023;28;20525;-71
2021/03/25 05:25:03;;;;;;;3.05;1.80;;;4.20;99.90;;;;;;5073257;28;20418;-69
2021/03/25 05:27:41;;;;;;;2.60;1.90;;;4.50;99.90;;;;;;5069445;28;20472;-70
2021/03/25 05:30:10;;;;;;;2.95;1.83;;;;;;;;;;5070780;28;20416;-72
2021/03/25 05:32:39;;;;;;;2.40;1.70;;;;;;;;;;5072527;28;20435;-73
2021/03/25 05:35:07;;;;;;;2.40;1.58;;;;;;;;;;5073397;28;20449;-71
2021/03/25 05:37:33;;;;;;;1.98;1.73;;;;;;;;;;5068801;28;20518;-69
2021/03/25 05:40:01;;;;;;;3.13;1.85;;;;;;;;;;5075081;28;20457;-72
2021/03/25 05:42:30;;;;;;;2.45;1.60;;;;;;;;;;5060557;28;20862;-70
2021/03/25 05:45:14;;;;;;;2.30;1.50;;;;;;;;;;5071414;28;20381;-70
2021/03/25 05:47:56;;;;;;;1.30;1.20;;;;;;;;;;5067663;28;20566;-70
2021/03/25 05:50:28;;;;;;;2.22;1.70;;;;;;;;;;5070698;28;20437;-69
2021/03/25 05:53:03;;;;;;;2.00;1.80;;;;;;;;;;5070439;28;20408;-71
2021/03/25 05:55:57;;;;;;;2.55;1.50;;;4.10;99.90;;;;;;5073584;28;20443;-72
2021/03/25 05:58:32;;;;;;;3.15;1.90;;;;;;;;;;5067443;28;20589;-68
2021/03/25 06:01:16;;;;;;;2.75;1.70;;;;;;;;;;5071482;28;20420;-67
2021/03/25 06:03:52;;;;;;;2.03;1.80;;;;;;;;;;5070462;28;20444;-67
2021/03/25 06:06:22;;;;;;;3.58;1.90;;;;;;;;;;5065744;28;21260;-67
2021/03/25 06:08:57;;;;;;;2.95;1.70;;;;;;;;;;5069582;28;20462;-68
2021/03/25 06:11:44;;;;;;;2.20;1.70;;;;;;;;;;5072341;28;20831;-68
2021/03/25 06:14:35;;;;;;;3.97;1.98;;;;;;;;;;5069592;28;20431;-72
2021/03/25 06:17:04;;;;;;;2.45;1.65;;;;;;;;;;5068249;28;20399;-68
2021/03/25 06:19:45;;;;;;;2.38;1.95;;;;;;;;;;5067356;28;20374;-69
2021/03/25 06:22:15;;;;;;;2.20;1.90;;;;;;;;;;5066653;28;20384;-72
2021/03/25 06:25:07;;;;;;;4.28;1.95;;;;;;;;;;5070894;28;20823;-68
2021/03/25 06:27:42;;;;;;;2.10;1.40;;;;;;;;;;5069266;28;20391;-68
2021/03/25 06:30:22;;;;;;;3.45;1.92;;;;;;;;;;5070327;28;20465;-72
2021/03/25 06:32:51;;;;;;;2.13;1.83;;;;;;;;;;5068546;28;20467;-69
2021/03/25 06:35:18;;;;;;;3.20;2.10;;;;;;;;;;5067063;28;20513;-72
2021/03/25 06:37:50;;;;;;;2.40;1.80;;;;;;;;;;5070593;28;20420;-70
2021/03/25 06:40:29;;;;;;;2.75;2.10;;;;;;;;;;5068563;28;20383;-68
2021/03/25 06:43:26;;;;;;;3.10;2.45;;;5.60;99.90;;;;;;5068750;28;20391;-68
2021/03/25 06:46:11;;;;;;;2.00;1.80;;;;;;;;;;5035218;28;20408;-68
2021/03/25 06:48:43;;;;;;;2.67;1.90;;;;;;;;;;5068732;28;20392;-69
2021/03/25 06:51:29;;;;;;;2.87;1.93;;;;;;;;;;5072719;28;20520;-71
2021/03/25 06:54:03;;;;;;;2.40;1.90;;;;;;;;;;5070063;28;20383;-69
2021/03/25 06:56:35;;;;;;;2.10;1.87;;;;;;;;;;5067974;28;21016;-69
2021/03/25 06:59:02;;;;;;;2.03;1.60;;;;;;;;;;5069800;28;20414;-68
2021/03/25 07:01:28;;;;;;;2.17;1.70;;;;;;;;;;5071286;28;20384;-71
2021/03/25 07:03:56;;;;;;;2.90;1.80;;;;;;;;;;5071205;28;20380;-69
2021/03/25 07:06:25;;;;;;;3.00;1.85;;;;;;;;;;5066042;28;21184;-68
2021/03/25 07:08:53;;;;;;;3.40;2.20;;;;;;;;;;5067545;28;20373;-70
2021/03/25 07:11:19;;;;;;;2.58;2.20;;;;;;;;;;5070724;28;20478;-68
2021/03/25 07:13:49;;;;;;;2.40;1.80;;;;;;;;;;5055348;28;20845;-68
2021/03/25 07:16:15;;;;;;;2.50;1.80;;;;;;;;;;5062862;28;20386;-70
2021/03/25 07:18:44;;;;;;;2.70;1.55;;;;;;;;;;5065550;28;20399;-68
2021/03/25 07:21:19;;;;;;;2.90;2.30;;;;;;;;;;5064694;28;20416;-72
2021/03/25 07:23:45;;;;;;;2.78;2.00;;;;;;;;;;5060684;28;20372;-69
2021/03/25 07:26:30;;;;;;;3.80;1.90;;;;;;;;;;5067792;28;20380;-73
2021/03/25 07:29:01;;;;;;;2.40;1.75;;;;;;;;;;5067730;28;20398;-67
2021/03/25 07:31:29;;;;;;;2.60;1.85;;;;;;;;;;5065327;28;20916;-68
2021/03/25 07:33:55;;;;;;;2.20;1.90;;;;;;;;;;5063287;28;20528;-73
2021/03/25 07:36:21;;;;;;;2.30;1.67;;;;;;;;;;5068555;28;20376;-70
2021/03/25 07:38:47;;;;;;;2.50;2.00;;;;;;;;;;5065391;28;20431;-69
2021/03/25 07:41:14;;;;;;;1.60;1.40;;;;;;;;;;5067095;28;20428;-71
2021/03/25 07:43:56;;;;;;;1.85;1.65;;;;;;;;;;5065086;28;20847;-71
2021/03/25 07:46:35;;;;;;;2.38;1.80;;;;;;;;;;5065287;28;20390;-68
2021/03/25 07:49:22;;;;;;;3.20;2.30;;;;;;;;;;5068249;28;20441;-68
2021/03/25 07:51:50;;;;;;;2.40;1.90;;;;;;;;;;5065214;28;21192;-72
2021/03/25 07:54:20;;;;;;;2.20;1.88;;;;;;;;;;5064972;28;20395;-71
2021/03/25 07:56:52;;;;;;;3.20;2.10;;;;;;;;;;5067424;28;20753;-67
2021/03/25 07:59:38;;;;;;;2.10;1.80;;;;;;;;;;5063438;28;20392;-71
2021/03/25 08:02:23;;;;;;;3.88;2.22;;;;;;;;;;5067321;28;20385;-72
2021/03/25 08:04:49;;;;;;;2.97;2.13;;;;;;;;;;5067844;28;20398;-69
2021/03/25 08:07:15;;;;;;;2.47;2.28;;;;;;;;;;5071531;28;20386;-72
2021/03/25 08:10:01;;;;;;;2.67;2.23;;;;;;;;;;5067248;28;20385;-72
2021/03/25 08:12:31;;;;;;;3.22;1.80;;;;;;;;;;5066797;28;20545;-71
2021/03/25 08:15:23;;;;;;;2.90;2.15;;;;;;;;;;5067766;28;20417;-69
2021/03/25 08:18:08;;;;;;;2.55;2.03;;;;;;;;;;5063258;28;21203;-70
2021/03/25 08:20:43;;;;;;;4.00;1.70;;;;;;;;;;5066200;28;20387;-68
2021/03/25 08:23:12;;;;;;;2.97;2.17;;;;;;;;;;5070789;28;20391;-71
2021/03/25 08:25:40;;;;;;;3.28;1.90;;;;;;;;;;5072182;28;20380;-69
2021/03/25 08:28:19;;;;;;;2.90;1.92;;;;;;;;;;5071382;28;20388;-72
2021/03/25 08:30:58;;;;;;;2.72;1.50;;;;;;;;;;5071198;28;20510;-71
2021/03/25 08:33:42;;;;;;;2.80;1.53;;;;;;;;;;5064572;28;20368;-70
2021/03/25 08:36:27;;;;;;;4.63;1.83;;;;;;;;;;5070110;28;20510;-67
2021/03/25 08:39:11;;;;;;;2.10;1.50;;;;;;;;;;5068976;28;20419;-67
2021/03/25 08:41:42;;;;;;;2.90;2.15;;;;;;;;;;5070491;28;20406;-68
2021/03/25 08:44:24;;;;;;;3.00;2.20;;;;;;;;;;5067852;28;20853;-70
2021/03/25 08:46:56;;;;;;;3.42;2.38;;;;;;;;;;5071943;28;20386;-70
2021/03/25 08:49:28;;;;;;;4.20;2.70;;;;;;;;;;5069029;28;20462;-69
2021/03/25 08:51:56;;;;;;;6.53;2.80;;;;;;;;;;5069899;28;20394;-67
2021/03/25 08:54:28;;;;;;;6.70;2.40;;;;;;;;;;5065953;28;20433;-70
2021/03/25 08:57:01;;;;;;;3.40;2.90;;;;;;;;;;5069813;28;20434;-69
2021/03/25 08:59:30;;;;;;;5.40;3.50;;;;;;;;;;5066804;28;20396;-69
2021/03/25 09:02:15;;;;;;;3.42;2.63;;;;;;;;;;5067787;28;20394;-70
2021/03/25 09:04:57;;;;;;;4.88;2.60;;;12.50;99.90;;;;;;5063716;28;20438;-70
2021/03/25 09:07:24;;;;;;;3.60;2.65;;;;;;;;;;5065732;28;20423;-69
2021/03/25 09:09:54;;;;;;;3.50;2.83;;;;;;;;;;5069353;28;20378;-68
2021/03/25 09:12:22;;;;;;;4.40;2.70;;;;;;;;;;5067055;28;20421;-68
2021/03/25 09:14:48;;;;;;;3.60;2.60;;;;;;;;;;5062870;28;20390;-68
2021/03/25 09:17:17;;;;;;;3.67;2.80;;;;;;;;;;5069358;28;20399;-72
2021/03/25 09:19:47;;;;;;;4.72;2.90;;;;;;;;;;5067448;28;20413;-69
2021/03/25 09:22:32;;;;;;;3.25;2.45;;;;;;;;;;5067934;28;20379;-74
2021/03/25 09:25:16;;;;;;;5.22;3.10;;;;;;;;;;5069122;28;20417;-69
2021/03/25 09:28:03;;;;;;;6.43;2.75;;;;;;;;;;5067589;28;20417;-69
2021/03/25 09:30:32;;;;;;;4.53;2.60;;;;;;;;;;5067725;28;20794;-70
2021/03/25 09:33:17;;;;;;;3.22;2.30;;;;;;;;;;5067612;28;20392;-68
2021/03/25 09:35:45;;;;;;;3.00;2.50;;;;;;;;;;5065026;28;20437;-69
2021/03/25 09:38:12;;;;;;;4.45;2.40;;;;;;;;;;5062750;28;20511;-72
2021/03/25 09:40:46;;;;;;;4.80;2.60;;;;;;;;;;5067683;28;20382;-69
2021/03/25 09:43:27;;;;;;;3.25;2.40;;;;;;;;;;5065376;28;20373;-68
2021/03/25 09:45:57;;;;;;;4.82;3.17;;;;;;;;;;5068762;28;20386;-68
2021/03/25 09:48:28;;;;;;;6.35;2.45;;;;;;;;;;5069119;28;20410;-72
2021/03/25 09:51:15;;;;;;;3.90;2.85;;;;;;;;;;5068142;28;20381;-69
2021/03/25 09:53:46;;;;;;;3.80;2.90;;;;;;;;;;5068337;28;20382;-70
2021/03/25 09:56:28;;;;;;;3.97;2.90;;;;;;;;;;5068718;28;20464;-69
2021/03/25 09:58:54;;;;;;;5.30;3.30;;;;;;;;;;5067993;28;20410;-69
2021/03/25 10:01:39;;;;;;;3.78;2.90;;;;;;;;;;5071616;28;20434;-68
2021/03/25 10:04:24;;;;;;;5.00;2.83;;;;;;;;;;5066360;28;20380;-69
2021/03/25 10:06:54;;;;;;;6.80;2.80;;;;;;;;;;5081525;28;20427;-69
2021/03/25 10:09:40;;;;;;;3.65;2.70;;;;;;;;;;5084664;28;20431;-69
2021/03/25 10:12:11;;;;;;;7.00;3.33;;;;;;;;;;5083469;28;20870;-69
2021/03/25 10:14:45;;;;;;;6.30;3.20;;;;;;;;;;5075307;28;20387;-68
2021/03/25 10:17:32;;;;;;;6.30;3.17;;;;;;;;;;5069957;28;20406;-69
2021/03/25 10:19:59;;;;;;;7.75;3.78;;;;;;;;;;5065497;28;20387;-68
2021/03/25 10:22:25;;;;;;;5.68;2.92;;;;;;;;;;5079689;28;20382;-67
2021/03/25 10:24:55;;;;;;;6.80;3.80;;;;;;;;;;5073311;28;20376;-68
2021/03/25 10:27:27;;;;;;;6.80;3.33;;;;;;;;;;5076174;28;20370;-68
2021/03/25 10:29:55;;;;;;;4.13;3.15;;;;;;;;;;5078215;28;20408;-68
2021/03/25 10:32:30;;;;;;;5.88;3.30;;;;;;;;;;5080573;28;20382;-72
2021/03/25 10:34:58;;;;;;;9.15;3.65;;;;;;;;;;5081932;28;20837;-68
2021/03/25 10:37:43;;;;;;;6.97;3.40;;;;;;;;;;5076020;28;20424;-68
2021/03/25 10:40:39;;;;;;;6.13;3.70;;;;;;;;;;5073075;28;20366;-68
2021/03/25 10:43:13;;;;;;;5.97;3.85;;;;;;;;;;5067389;28;20419;-67
2021/03/25 10:45:48;;;;;;;8.70;4.03;;;;;;;;;;5071703;28;20398;-68
2021/03/25 10:48:25;;;;;;;6.28;3.50;;;;;;;;;;5074275;28;20430;-71
2021/03/25 10:51:03;;;;;;;6.45;3.75;;;;;;;;;;5078569;28;20462;-70
2021/03/25 10:53:30;;;;;;;5.22;3.47;;;;;;;;;;5066109;28;20370;-73
2021/03/25 10:56:05;;;;;;;6.90;3.65;;;;;;;;;;5064099;28;20376;-71
2021/03/25 10:58:34;;;;;;;7.53;4.50;;;;;;;;;;5065772;28;20414;-71
2021/03/25 11:01:05;;;;;;;8.85;4.13;;;;;;;;;;5067012;28;20417;-72
2021/03/25 11:03:40;;;;;;;6.10;3.90;;;;;;;;;;5065056;28;21371;-71
2021/03/25 11:06:07;;;;;;;8.30;4.10;;;;;;;;;;5069868;28;20382;-70
2021/03/25 11:08:40;;;;;;;8.18;4.30;;;;;;;;;;5064944;28;20401;-70
2021/03/25 11:11:13;;;;;;;6.43;3.90;;;;;;;;;;5063283;28;20382;-70
2021/03/25 11:13:40;;;;;;;6.00;3.60;;;;;;;;;;5065172;28;20402;-72
2021/03/25 11:16:16;;;;;;;6.85;3.67;;;16.70;93.30;;;;;;5067912;28;20422;-70
2021/03/25 11:18:50;;;;;;;9.20;4.00;;;;;;;;;;5063660;28;20401;-72
2021/03/25 11:21:30;;;;;;;8.00;3.80;;;;;;;;;;5062531;28;20384;-72
2021/03/25 11:23:59;;;;;;;12.05;4.18;;;;;;;;;;5065004;28;20380;-71
2021/03/25 11:26:25;;;;;;;6.50;3.90;;;;;;;;;;5066333;28;20372;-71
2021/03/25 11:28:51;;;;;;;8.10;4.17;;;;;;;;;;5064882;28;20391;-72
2021/03/25 11:31:25;;;;;;;6.97;4.22;;;;;;;;;;5065123;28;20371;-71
2021/03/25 11:33:52;;;;;;;7.47;3.83;;;;;;;;;;5066596;28;20392;-73
2021/03/25 11:36:33;;;;;;;5.57;3.88;;;;;;;;;;5063562;28;21063;-71
2021/03/25 11:39:09;;;;;;;9.18;4.97;;;;;;;;;;5064729;28;20542;-71
2021/03/25 11:41:35;;;;;;;6.78;4.20;;;;;;;;;;5062123;28;20404;-71
2021/03/25 11:44:05;;;;;;;5.67;3.70;;;;;;;;;;5065779;28;20389;-70
2021/03/25 11:46:34;;;;;;;7.07;4.25;;;;;;;;;;5064434;28;20412;-70
2021/03/25 11:49:17;;;;;;;6.50;3.90;;;;;;;;;;5063286;28;20450;-70
2021/03/25 11:51:46;;;;;;;6.00;3.43;;;;;;;;;;5059652;28;20459;-70
2021/03/25 11:54:20;;;;;;;7.93;4.05;;;;;;;;;;5065313;28;20395;-69
2021/03/25 11:56:56;;;;;;;5.95;3.30;;;19.20;87.80;;;;;;5064205;28;20495;-71
2021/03/25 11:59:28;;;;;;;6.87;3.90;;;;;;;;;;5065556;28;20862;-71
2021/03/25 12:02:08;;;;;;;7.22;3.85;;;;;;;;;;5064766;28;20380;-71
2021/03/25 12:04:34;;;;;;;6.60;3.90;;;;;;;;;;5068736;28;20397;-73
2021/03/25 12:07:15;;;;;;;5.35;3.90;;;;;;;;;;5064733;28;20386;-70
2021/03/25 12:10:01;;;;;;;7.55;4.00;;;;;;;;;;5065288;28;20393;-71
2021/03/25 12:12:27;;;;;;;7.75;3.88;;;;;;;;;;5064202;28;20383;-71
2021/03/25 12:14:54;;;;;;;6.32;3.80;;;;;;;;;;5065753;28;20372;-70
2021/03/25 12:17:20;;;;;;;8.32;4.50;;;;;;;;;;5068979;28;20492;-73
2021/03/25 12:19:46;;;;;;;5.82;3.35;;;;;;;;;;5065224;28;20388;-73
2021/03/25 12:22:13;;;;;;;6.78;3.80;;;;;;;;;;5063544;28;20414;-71
2021/03/25 12:24:39;;;;;;;4.80;3.40;;;;;;;;;;5064835;28;20485;-74
2021/03/25 12:27:06;;;;;;;5.80;3.22;;;;;;;;;;5065213;28;21284;-71
2021/03/25 12:29:32;;;;;;;6.43;3.85;;;;;;;;;;5065872;28;20465;-73
2021/03/25 12:31:58;;;;;;;8.30;4.00;;;;;;;;;;5064789;28;20431;-73
2021/03/25 12:34:24;;;;;;;6.57;3.40;;;;;;;;;;5065945;28;20390;-70
2021/03/25 12:36:51;;;;;;;6.70;4.03;;;;;;;;;;5068453;28;20376;-71
2021/03/25 12:39:19;;;;;;;7.17;3.90;;;20.50;80.80;;;;;;5068472;28;20433;-71
2021/03/25 12:41:46;;;;;;;5.63;3.60;;;;;;;;;;5062739;28;21205;-71
2021/03/25 12:44:13;;;;;;;5.40;3.35;;;;;;;;;;5068610;28;20790;-73
2021/03/25 12:46:40;;;;;;;6.30;2.80;;;;;;;;;;5067793;28;20378;-71
2021/03/25 12:49:06;;;;;;;4.13;3.00;;;;;;;;;;5065126;28;20495;-71
2021/03/25 12:51:32;;;;;;;4.88;2.30;;;;;;;;;;5065759;28;20416;-73
2021/03/25 12:53:59;;;;;;;4.20;2.63;;;;;;;;;;5065505;28;20461;-70
2021/03/25 12:56:28;;;;;;;3.72;2.50;;;;;;;;;;5064838;28;20376;-74
2021/03/25 12:58:55;;;;;;;4.68;2.72;;;;;;;;;;5069598;28;20404;-71
2021/03/25 13:01:23;;;;;;;5.05;2.78;;;;;;;;;;5063335;28;20395;-73
2021/03/25 13:03:50;;;;;;;3.30;2.50;;;;;;;;;;5066198;28;21132;-71
2021/03/25 13:06:17;;;;;;;3.90;2.60;;;;;;;;;;5065972;28;20524;-71
2021/03/25 13:08:43;;;;;;;5.07;2.47;;;;;;;;;;5071524;28;20384;-71
2021/03/25 13:11:12;;;;;;;4.10;2.60;;;;;;;;;;5068306;28;20858;-73
2021/03/25 13:13:38;;;;;;;4.13;2.60;;;;;;;;;;5072025;28;20407;-73
2021/03/25 13:16:05;;;;;;;5.67;2.80;;;;;;;;;;5075386;28;20382;-69
2021/03/25 13:18:31;;;;;;;4.90;3.20;;;;;;;;;;5070438;28;20411;-73
2021/03/25 13:20:57;;;;;;;5.35;3.10;;;;;;;;;;5071044;28;20392;-73
2021/03/25 13:23:24;;;;;;;7.20;3.38;;;;;;;;;;5069260;28;20501;-73
2021/03/25 13:25:51;;;;;;;4.70;3.40;;;;;;;;;;5071427;28;20441;-72
2021/03/25 13:28:17;;;;;;;5.95;3.08;;;;;;;;;;5070958;28;20389;-73
2021/03/25 13:30:44;;;;;;;6.15;3.10;;;;;;;;;;5072774;28;20465;-72
2021/03/25 13:33:11;;;;;;;5.88;3.08;;;;;;;;;;5069547;28;20441;-72
2021/03/25 13:35:39;;;;;;;4.85;3.45;;;21.00;71.30;;;;;;5071342;28;20428;-70
2021/03/25 13:38:06;;;;;;;5.70;3.40;;;;;;;;;;5072811;28;20444;-70
2021/03/25 13:40:33;;;;;;;6.80;3.20;;;;;;;;;;5071451;28;20410;-73
2021/03/25 13:43:00;;;;;;;6.88;3.47;;;;;;;;;;5069649;28;20368;-73
2021/03/25 13:45:27;;;;;;;5.05;3.17;;;;;;;;;;5071640;28;20372;-73
2021/03/25 13:47:53;;;;;;;6.10;3.33;;;;;;;;;;5071514;28;20407;-70
2021/03/25 13:50:23;;;;;;;5.05;3.10;;;;;;;;;;5073394;28;20375;-71
2021/03/25 13:52:49;;;;;;;5.47;3.20;;;;;;;;;;5070464;28;20380;-70
2021/03/25 13:55:30;;;;;;;4.15;2.85;;;;;;;;;;5070014;28;20393;-70
2021/03/25 13:57:56;;;;;;;5.57;3.40;;;;;;;;;;5071068;28;20407;-70
2021/03/25 14:00:23;;;;;;;5.85;2.80;;;;;;;;;;5071833;28;20724;-70
2021/03/25 14:02:49;;;;;;;4.50;3.15;;;;;;;;;;5068736;28;20394;-69
2021/03/25 14:05:16;;;;;;;5.57;3.08;;;;;;;;;;5070453;28;20394;-72
2021/03/25 14:07:42;;;;;;;5.13;3.27;;;;;;;;;;5071599;28;20379;-71
2021/03/25 14:10:09;;;;;;;5.45;3.63;;;;;;;;;;5072638;28;20367;-69
2021/03/25 14:12:35;;;;;;;7.07;3.75;;;;;;;;;;5068634;28;20405;-72
2021/03/25 14:15:01;;;;;;;5.03;3.35;;;;;;;;;;5072563;28;20374;-70
2021/03/25 14:17:27;;;;;;;6.70;3.60;;;;;;;;;;5067024;28;20497;-70
2021/03/25 14:19:53;;;;;;;5.53;2.90;;;;;;;;;;5070539;28;20384;-71
2021/03/25 14:22:19;;;;;;;3.88;2.72;;;;;;;;;;5069442;28;20400;-70
2021/03/25 14:24:45;;;;;;;5.07;3.53;;;;;;;;;;5070521;28;20375;-70
2021/03/25 14:27:11;;;;;;;4.32;2.90;;;;;;;;;;5071499;28;20495;-71
2021/03/25 14:29:37;;;;;;;4.07;2.90;;;21.00;76.80;;;;;;5068378;28;20488;-72
2021/03/25 14:32:03;;;;;;;5.20;2.97;;;;;;;;;;5072383;28;20395;-69
2021/03/25 14:34:29;;;;;;;6.43;3.72;;;;;;;;;;5068109;28;20403;-72
2021/03/25 14:36:55;;;;;;;5.40;3.78;;;;;;;;;;5069426;28;20376;-69
2021/03/25 14:39:21;;;;;;;6.10;3.50;;;;;;;;;;5069267;28;20498;-70
2021/03/25 14:41:47;;;;;;;5.38;3.80;;;;;;;;;;5067432;28;20500;-69
2021/03/25 14:44:14;;;;;;;4.55;3.17;;;;;;;;;;5067975;28;20401;-70
2021/03/25 14:46:40;;;;;;;5.75;3.70;;;;;;;;;;5070148;28;20437;-70
2021/03/25 14:49:06;;;;;;;4.95;3.50;;;;;;;;;;5073915;28;20377;-69
2021/03/25 14:51:32;;;;;;;6.78;3.80;;;;;;;;;;5071069;28;20382;-71
2021/03/25 14:53:58;;;;;;;6.25;3.40;;;;;;;;;;5069552;28;20376;-68
2021/03/25 14:56:24;;;;;;;4.30;3.33;;;;;;;;;;5071732;28;20380;-68
2021/03/25 14:58:50;;;;;;;4.68;3.20;;;;;;;;;;5071387;28;20502;-69
2021/03/25 15:01:16;;;;;;;10.07;3.72;;;;;;;;;;5068296;28;20483;-71
2021/03/25 15:03:42;;;;;;;3.20;2.70;;;;;;;;;;5068145;28;20366;-71